sensor_id;sensor_type;location;lat;lon;timestamp;P1;durP1;ratioP1;P2;durP2;ratioP2
9467;SDS011;4772;52.382;9.752;2023-04-25T00:00:50;11.43;;;5.40;;
9467;SDS011;4772;52.382;9.752;2023-04-25T00:03:17;9.30;;;5.47;;
9467;SDS011;4772;52.382;9.752;2023-04-25T00:05:43;15.13;;;5.57;;
9467;SDS011;4772;52.382;9.752;2023-04-25T00:08:10;12.20;;;5.37;;
9467;SDS011;4772;52.382;9.752;2023-04-25T00:10:36;11.57;;;5.63;;
9467;SDS011;4772;52.382;9.752;2023-04-25T00:13:02;14.60;;;5.60;;
9467;SDS011;4772;52.382;9.752;2023-04-25T00:15:28;12.57;;;5.77;;
9467;SDS011;4772;52.382;9.752;2023-04-25T00:17:57;14.07;;;5.50;;
9467;SDS011;4772;52.382;9.752;2023-04-25T00:20:23;13.60;;;5.40;;
9467;SDS011;4772;52.382;9.752;2023-04-25T00:22:49;12.57;;;5.93;;
9467;SDS011;4772;52.382;9.752;2023-04-25T00:25:17;11.07;;;4.77;;
9467;SDS011;4772;52.382;9.752;2023-04-25T00:27:43;10.27;;;5.10;;
9467;SDS011;4772;52.382;9.752;2023-04-25T00:30:09;13.20;;;5.57;;
9467;SDS011;4772;52.382;9.752;2023-04-25T00:32:35;9.77;;;4.77;;
9467;SDS011;4772;52.382;9.752;2023-04-25T00:35:02;12.53;;;4.90;;
9467;SDS011;4772;52.382;9.752;2023-04-25T00:37:28;10.97;;;4.80;;
9467;SDS011;4772;52.382;9.752;2023-04-25T00:39:54;9.47;;;4.87;;
9467;SDS011;4772;52.382;9.752;2023-04-25T00:42:20;11.50;;;4.80;;
9467;SDS011;4772;52.382;9.752;2023-04-25T00:44:47;9.57;;;4.47;;
9467;SDS011;4772;52.382;9.752;2023-04-25T00:47:13;9.20;;;4.80;;
9467;SDS011;4772;52.382;9.752;2023-04-25T00:49:40;11.87;;;5.17;;
9467;SDS011;4772;52.382;9.752;2023-04-25T00:52:06;12.57;;;5.93;;
9467;SDS011;4772;52.382;9.752;2023-04-25T00:54:32;12.13;;;5.13;;
9467;SDS011;4772;52.382;9.752;2023-04-25T00:56:58;8.97;;;4.33;;
9467;SDS011;4772;52.382;9.752;2023-04-25T00:59:26;12.90;;;5.00;;
9467;SDS011;4772;52.382;9.752;2023-04-25T01:01:53;14.87;;;5.20;;
9467;SDS011;4772;52.382;9.752;2023-04-25T01:04:19;9.37;;;5.30;;
9467;SDS011;4772;52.382;9.752;2023-04-25T01:06:45;12.07;;;5.30;;
9467;SDS011;4772;52.382;9.752;2023-04-25T01:09:11;13.03;;;5.03;;
9467;SDS011;4772;52.382;9.752;2023-04-25T01:11:38;12.23;;;5.77;;
9467;SDS011;4772;52.382;9.752;2023-04-25T01:14:05;14.07;;;5.77;;
9467;SDS011;4772;52.382;9.752;2023-04-25T01:16:31;10.13;;;5.40;;
9467;SDS011;4772;52.382;9.752;2023-04-25T01:18:58;11.17;;;5.20;;
9467;SDS011;4772;52.382;9.752;2023-04-25T01:21:24;12.37;;;5.77;;
9467;SDS011;4772;52.382;9.752;2023-04-25T01:23:52;13.27;;;6.00;;
9467;SDS011;4772;52.382;9.752;2023-04-25T01:26:18;13.97;;;5.87;;
9467;SDS011;4772;52.382;9.752;2023-04-25T01:28:46;10.30;;;5.43;;
9467;SDS011;4772;52.382;9.752;2023-04-25T01:31:12;13.67;;;6.07;;
9467;SDS011;4772;52.382;9.752;2023-04-25T01:33:38;12.87;;;5.60;;
9467;SDS011;4772;52.382;9.752;2023-04-25T01:36:04;17.13;;;6.57;;
9467;SDS011;4772;52.382;9.752;2023-04-25T01:38:31;12.30;;;6.10;;
9467;SDS011;4772;52.382;9.752;2023-04-25T01:40:57;14.00;;;6.00;;
9467;SDS011;4772;52.382;9.752;2023-04-25T01:43:23;14.57;;;6.17;;
9467;SDS011;4772;52.382;9.752;2023-04-25T01:45:49;11.90;;;5.67;;
9467;SDS011;4772;52.382;9.752;2023-04-25T01:48:16;11.30;;;5.97;;
9467;SDS011;4772;52.382;9.752;2023-04-25T01:50:42;9.80;;;5.67;;
9467;SDS011;4772;52.382;9.752;2023-04-25T01:53:09;14.13;;;5.87;;
9467;SDS011;4772;52.382;9.752;2023-04-25T01:55:36;12.07;;;6.03;;
9467;SDS011;4772;52.382;9.752;2023-04-25T01:58:02;15.23;;;6.03;;
9467;SDS011;4772;52.382;9.752;2023-04-25T02:00:28;11.20;;;5.80;;
9467;SDS011;4772;52.382;9.752;2023-04-25T02:02:57;12.73;;;5.70;;
9467;SDS011;4772;52.382;9.752;2023-04-25T02:05:23;11.63;;;5.97;;
9467;SDS011;4772;52.382;9.752;2023-04-25T02:07:49;12.87;;;5.90;;
9467;SDS011;4772;52.382;9.752;2023-04-25T02:10:15;8.43;;;5.77;;
9467;SDS011;4772;52.382;9.752;2023-04-25T02:12:41;11.27;;;6.40;;
9467;SDS011;4772;52.382;9.752;2023-04-25T02:15:07;14.50;;;6.67;;
9467;SDS011;4772;52.382;9.752;2023-04-25T02:17:33;8.90;;;6.47;;
9467;SDS011;4772;52.382;9.752;2023-04-25T02:19:59;13.17;;;7.33;;
9467;SDS011;4772;52.382;9.752;2023-04-25T02:22:25;15.57;;;7.03;;
9467;SDS011;4772;52.382;9.752;2023-04-25T02:24:52;14.23;;;7.33;;
9467;SDS011;4772;52.382;9.752;2023-04-25T02:27:18;19.77;;;7.40;;
9467;SDS011;4772;52.382;9.752;2023-04-25T02:29:44;14.10;;;6.13;;
9467;SDS011;4772;52.382;9.752;2023-04-25T02:32:10;14.97;;;5.47;;
9467;SDS011;4772;52.382;9.752;2023-04-25T02:34:36;12.60;;;5.60;;
9467;SDS011;4772;52.382;9.752;2023-04-25T02:37:02;12.20;;;4.93;;
9467;SDS011;4772;52.382;9.752;2023-04-25T02:39:28;14.50;;;5.03;;
9467;SDS011;4772;52.382;9.752;2023-04-25T02:41:54;17.43;;;5.30;;
9467;SDS011;4772;52.382;9.752;2023-04-25T02:44:20;12.40;;;4.57;;
9467;SDS011;4772;52.382;9.752;2023-04-25T02:46:46;14.40;;;5.20;;
9467;SDS011;4772;52.382;9.752;2023-04-25T02:49:12;16.03;;;5.63;;
9467;SDS011;4772;52.382;9.752;2023-04-25T02:51:38;17.43;;;4.87;;
9467;SDS011;4772;52.382;9.752;2023-04-25T02:54:04;12.70;;;4.57;;
9467;SDS011;4772;52.382;9.752;2023-04-25T02:56:31;14.03;;;5.00;;
9467;SDS011;4772;52.382;9.752;2023-04-25T02:58:57;12.27;;;4.70;;
9467;SDS011;4772;52.382;9.752;2023-04-25T03:01:23;18.80;;;4.80;;
9467;SDS011;4772;52.382;9.752;2023-04-25T03:03:49;14.63;;;4.57;;
9467;SDS011;4772;52.382;9.752;2023-04-25T03:06:15;18.03;;;4.70;;
9467;SDS011;4772;52.382;9.752;2023-04-25T03:08:41;19.47;;;4.80;;
9467;SDS011;4772;52.382;9.752;2023-04-25T03:11:07;17.20;;;4.80;;
9467;SDS011;4772;52.382;9.752;2023-04-25T03:13:33;18.13;;;4.63;;
9467;SDS011;4772;52.382;9.752;2023-04-25T03:15:59;15.50;;;4.53;;
9467;SDS011;4772;52.382;9.752;2023-04-25T03:18:25;17.37;;;4.83;;
9467;SDS011;4772;52.382;9.752;2023-04-25T03:20:51;18.93;;;5.00;;
9467;SDS011;4772;52.382;9.752;2023-04-25T03:23:17;20.83;;;4.73;;
9467;SDS011;4772;52.382;9.752;2023-04-25T03:25:43;16.47;;;4.40;;
9467;SDS011;4772;52.382;9.752;2023-04-25T03:28:09;20.67;;;5.03;;
9467;SDS011;4772;52.382;9.752;2023-04-25T03:30:35;16.67;;;5.23;;
9467;SDS011;4772;52.382;9.752;2023-04-25T03:33:01;18.30;;;5.13;;
9467;SDS011;4772;52.382;9.752;2023-04-25T03:35:27;17.90;;;4.43;;
9467;SDS011;4772;52.382;9.752;2023-04-25T03:37:53;22.67;;;5.70;;
9467;SDS011;4772;52.382;9.752;2023-04-25T03:40:19;15.70;;;4.53;;
9467;SDS011;4772;52.382;9.752;2023-04-25T03:42:45;17.83;;;4.17;;
9467;SDS011;4772;52.382;9.752;2023-04-25T03:45:11;18.87;;;4.50;;
9467;SDS011;4772;52.382;9.752;2023-04-25T03:47:37;21.47;;;4.93;;
9467;SDS011;4772;52.382;9.752;2023-04-25T03:50:03;14.37;;;4.70;;
9467;SDS011;4772;52.382;9.752;2023-04-25T03:52:29;19.40;;;4.70;;
9467;SDS011;4772;52.382;9.752;2023-04-25T03:54:55;21.10;;;5.20;;
9467;SDS011;4772;52.382;9.752;2023-04-25T03:57:21;14.30;;;4.63;;
9467;SDS011;4772;52.382;9.752;2023-04-25T03:59:47;13.73;;;4.13;;
9467;SDS011;4772;52.382;9.752;2023-04-25T04:02:13;22.53;;;5.30;;
9467;SDS011;4772;52.382;9.752;2023-04-25T04:04:39;16.67;;;4.97;;
9467;SDS011;4772;52.382;9.752;2023-04-25T04:07:05;16.50;;;5.33;;
9467;SDS011;4772;52.382;9.752;2023-04-25T04:09:31;20.57;;;4.57;;
9467;SDS011;4772;52.382;9.752;2023-04-25T04:11:57;24.63;;;5.13;;
9467;SDS011;4772;52.382;9.752;2023-04-25T04:14:23;15.97;;;4.77;;
9467;SDS011;4772;52.382;9.752;2023-04-25T04:16:50;20.93;;;4.67;;
9467;SDS011;4772;52.382;9.752;2023-04-25T04:19:17;22.50;;;4.93;;
9467;SDS011;4772;52.382;9.752;2023-04-25T04:21:43;19.53;;;4.97;;
9467;SDS011;4772;52.382;9.752;2023-04-25T04:24:09;20.53;;;5.60;;
9467;SDS011;4772;52.382;9.752;2023-04-25T04:26:35;21.20;;;5.33;;
9467;SDS011;4772;52.382;9.752;2023-04-25T04:29:02;17.87;;;5.50;;
9467;SDS011;4772;52.382;9.752;2023-04-25T04:31:28;30.67;;;6.00;;
9467;SDS011;4772;52.382;9.752;2023-04-25T04:33:55;17.47;;;4.57;;
9467;SDS011;4772;52.382;9.752;2023-04-25T04:36:21;22.37;;;4.87;;
9467;SDS011;4772;52.382;9.752;2023-04-25T04:38:48;18.17;;;5.27;;
9467;SDS011;4772;52.382;9.752;2023-04-25T04:41:14;21.10;;;4.90;;
9467;SDS011;4772;52.382;9.752;2023-04-25T04:43:40;24.67;;;4.63;;
9467;SDS011;4772;52.382;9.752;2023-04-25T04:46:06;17.47;;;4.53;;
9467;SDS011;4772;52.382;9.752;2023-04-25T04:48:32;19.27;;;6.13;;
9467;SDS011;4772;52.382;9.752;2023-04-25T04:50:59;17.47;;;5.13;;
9467;SDS011;4772;52.382;9.752;2023-04-25T04:53:25;23.80;;;5.40;;
9467;SDS011;4772;52.382;9.752;2023-04-25T04:55:51;22.40;;;5.20;;
9467;SDS011;4772;52.382;9.752;2023-04-25T04:58:17;16.13;;;4.37;;
9467;SDS011;4772;52.382;9.752;2023-04-25T05:00:44;19.83;;;5.23;;
9467;SDS011;4772;52.382;9.752;2023-04-25T05:03:10;24.33;;;4.87;;
9467;SDS011;4772;52.382;9.752;2023-04-25T05:05:36;17.83;;;5.13;;
9467;SDS011;4772;52.382;9.752;2023-04-25T05:08:05;21.73;;;4.50;;
9467;SDS011;4772;52.382;9.752;2023-04-25T05:10:31;24.07;;;5.37;;
9467;SDS011;4772;52.382;9.752;2023-04-25T05:12:56;19.10;;;4.77;;
9467;SDS011;4772;52.382;9.752;2023-04-25T05:15:22;15.87;;;4.07;;
9467;SDS011;4772;52.382;9.752;2023-04-25T05:17:48;19.70;;;4.20;;
9467;SDS011;4772;52.382;9.752;2023-04-25T05:20:14;16.77;;;4.40;;
9467;SDS011;4772;52.382;9.752;2023-04-25T05:22:40;18.17;;;4.97;;
9467;SDS011;4772;52.382;9.752;2023-04-25T05:25:07;21.13;;;5.40;;
9467;SDS011;4772;52.382;9.752;2023-04-25T05:27:34;19.80;;;4.83;;
9467;SDS011;4772;52.382;9.752;2023-04-25T05:30:00;17.53;;;5.40;;
9467;SDS011;4772;52.382;9.752;2023-04-25T05:32:26;18.47;;;4.80;;
9467;SDS011;4772;52.382;9.752;2023-04-25T05:34:52;17.90;;;4.60;;
9467;SDS011;4772;52.382;9.752;2023-04-25T05:37:18;17.50;;;4.60;;
9467;SDS011;4772;52.382;9.752;2023-04-25T05:39:44;18.50;;;4.80;;
9467;SDS011;4772;52.382;9.752;2023-04-25T05:42:10;15.50;;;4.30;;
9467;SDS011;4772;52.382;9.752;2023-04-25T05:44:36;15.30;;;4.23;;
9467;SDS011;4772;52.382;9.752;2023-04-25T05:47:02;18.67;;;4.33;;
9467;SDS011;4772;52.382;9.752;2023-04-25T05:49:29;17.80;;;4.37;;
9467;SDS011;4772;52.382;9.752;2023-04-25T05:51:55;18.50;;;4.77;;
9467;SDS011;4772;52.382;9.752;2023-04-25T05:54:21;20.90;;;4.27;;
9467;SDS011;4772;52.382;9.752;2023-04-25T05:56:47;16.57;;;4.23;;
9467;SDS011;4772;52.382;9.752;2023-04-25T05:59:13;20.23;;;4.23;;
9467;SDS011;4772;52.382;9.752;2023-04-25T06:01:39;17.60;;;4.67;;
9467;SDS011;4772;52.382;9.752;2023-04-25T06:04:05;14.30;;;4.27;;
9467;SDS011;4772;52.382;9.752;2023-04-25T06:06:31;17.20;;;4.20;;
9467;SDS011;4772;52.382;9.752;2023-04-25T06:08:57;22.37;;;4.10;;
9467;SDS011;4772;52.382;9.752;2023-04-25T06:11:23;18.50;;;4.40;;
9467;SDS011;4772;52.382;9.752;2023-04-25T06:13:49;16.47;;;3.93;;
9467;SDS011;4772;52.382;9.752;2023-04-25T06:16:15;17.20;;;3.90;;
9467;SDS011;4772;52.382;9.752;2023-04-25T06:18:41;17.10;;;4.67;;
9467;SDS011;4772;52.382;9.752;2023-04-25T06:21:07;14.83;;;4.17;;
9467;SDS011;4772;52.382;9.752;2023-04-25T06:23:33;14.83;;;4.43;;
9467;SDS011;4772;52.382;9.752;2023-04-25T06:25:59;16.60;;;4.40;;
9467;SDS011;4772;52.382;9.752;2023-04-25T06:28:25;19.20;;;3.73;;
9467;SDS011;4772;52.382;9.752;2023-04-25T06:30:51;22.37;;;4.20;;
9467;SDS011;4772;52.382;9.752;2023-04-25T06:33:17;17.07;;;4.57;;
9467;SDS011;4772;52.382;9.752;2023-04-25T06:35:43;20.60;;;4.03;;
9467;SDS011;4772;52.382;9.752;2023-04-25T06:38:09;14.80;;;4.10;;
9467;SDS011;4772;52.382;9.752;2023-04-25T06:40:35;17.73;;;3.90;;
9467;SDS011;4772;52.382;9.752;2023-04-25T06:43:01;13.23;;;4.27;;
9467;SDS011;4772;52.382;9.752;2023-04-25T06:45:27;20.03;;;4.27;;
9467;SDS011;4772;52.382;9.752;2023-04-25T06:47:53;12.87;;;4.20;;
9467;SDS011;4772;52.382;9.752;2023-04-25T06:50:19;16.63;;;4.23;;
9467;SDS011;4772;52.382;9.752;2023-04-25T06:52:45;15.37;;;3.70;;
9467;SDS011;4772;52.382;9.752;2023-04-25T06:55:11;14.73;;;3.97;;
9467;SDS011;4772;52.382;9.752;2023-04-25T06:57:37;16.77;;;4.67;;
9467;SDS011;4772;52.382;9.752;2023-04-25T07:00:03;11.77;;;3.50;;
9467;SDS011;4772;52.382;9.752;2023-04-25T07:02:30;15.13;;;4.20;;
9467;SDS011;4772;52.382;9.752;2023-04-25T07:04:56;16.47;;;4.73;;
9467;SDS011;4772;52.382;9.752;2023-04-25T07:07:24;19.07;;;4.20;;
9467;SDS011;4772;52.382;9.752;2023-04-25T07:09:50;10.40;;;3.57;;
9467;SDS011;4772;52.382;9.752;2023-04-25T07:12:16;12.17;;;3.80;;
9467;SDS011;4772;52.382;9.752;2023-04-25T07:14:42;12.93;;;3.63;;
9467;SDS011;4772;52.382;9.752;2023-04-25T07:17:08;16.67;;;3.50;;
9467;SDS011;4772;52.382;9.752;2023-04-25T07:19:34;15.90;;;3.80;;
9467;SDS011;4772;52.382;9.752;2023-04-25T07:22:02;14.50;;;3.53;;
9467;SDS011;4772;52.382;9.752;2023-04-25T07:24:28;12.47;;;3.10;;
9467;SDS011;4772;52.382;9.752;2023-04-25T07:26:54;14.30;;;3.53;;
9467;SDS011;4772;52.382;9.752;2023-04-25T07:29:21;15.07;;;3.03;;
9467;SDS011;4772;52.382;9.752;2023-04-25T07:31:47;11.60;;;3.47;;
9467;SDS011;4772;52.382;9.752;2023-04-25T07:34:13;14.60;;;4.03;;
9467;SDS011;4772;52.382;9.752;2023-04-25T07:36:39;14.80;;;5.93;;
9467;SDS011;4772;52.382;9.752;2023-04-25T07:39:05;14.33;;;5.20;;
9467;SDS011;4772;52.382;9.752;2023-04-25T07:41:31;13.43;;;3.87;;
9467;SDS011;4772;52.382;9.752;2023-04-25T07:43:58;10.97;;;3.97;;
9467;SDS011;4772;52.382;9.752;2023-04-25T07:46:24;15.13;;;3.43;;
9467;SDS011;4772;52.382;9.752;2023-04-25T07:48:50;11.67;;;3.10;;
9467;SDS011;4772;52.382;9.752;2023-04-25T07:51:16;12.33;;;2.60;;
9467;SDS011;4772;52.382;9.752;2023-04-25T07:53:44;11.00;;;2.80;;
9467;SDS011;4772;52.382;9.752;2023-04-25T07:56:10;10.70;;;2.70;;
9467;SDS011;4772;52.382;9.752;2023-04-25T07:58:36;14.77;;;3.47;;
9467;SDS011;4772;52.382;9.752;2023-04-25T08:01:02;10.50;;;3.17;;
9467;SDS011;4772;52.382;9.752;2023-04-25T08:03:29;10.10;;;2.90;;
9467;SDS011;4772;52.382;9.752;2023-04-25T08:05:55;12.63;;;3.27;;
9467;SDS011;4772;52.382;9.752;2023-04-25T08:08:21;12.37;;;3.20;;
9467;SDS011;4772;52.382;9.752;2023-04-25T08:10:47;7.50;;;2.83;;
9467;SDS011;4772;52.382;9.752;2023-04-25T08:13:16;13.40;;;3.47;;
9467;SDS011;4772;52.382;9.752;2023-04-25T08:15:42;9.10;;;2.97;;
9467;SDS011;4772;52.382;9.752;2023-04-25T08:18:08;10.77;;;3.20;;
9467;SDS011;4772;52.382;9.752;2023-04-25T08:20:34;8.57;;;2.67;;
9467;SDS011;4772;52.382;9.752;2023-04-25T08:23:00;7.57;;;2.43;;
9467;SDS011;4772;52.382;9.752;2023-04-25T08:25:26;10.27;;;2.97;;
9467;SDS011;4772;52.382;9.752;2023-04-25T08:27:52;8.67;;;2.30;;
9467;SDS011;4772;52.382;9.752;2023-04-25T08:30:18;9.63;;;2.93;;
9467;SDS011;4772;52.382;9.752;2023-04-25T08:32:44;10.60;;;2.50;;
9467;SDS011;4772;52.382;9.752;2023-04-25T08:35:10;9.33;;;2.60;;
9467;SDS011;4772;52.382;9.752;2023-04-25T08:37:36;10.07;;;2.80;;
9467;SDS011;4772;52.382;9.752;2023-04-25T08:40:03;6.70;;;2.70;;
9467;SDS011;4772;52.382;9.752;2023-04-25T08:42:32;8.47;;;2.57;;
9467;SDS011;4772;52.382;9.752;2023-04-25T08:45:02;8.30;;;2.60;;
9467;SDS011;4772;52.382;9.752;2023-04-25T08:47:28;9.33;;;2.67;;
9467;SDS011;4772;52.382;9.752;2023-04-25T08:49:55;8.30;;;2.40;;
9467;SDS011;4772;52.382;9.752;2023-04-25T08:52:22;8.67;;;3.40;;
9467;SDS011;4772;52.382;9.752;2023-04-25T08:54:51;9.53;;;2.50;;
9467;SDS011;4772;52.382;9.752;2023-04-25T08:57:18;9.93;;;2.70;;
9467;SDS011;4772;52.382;9.752;2023-04-25T08:59:45;7.10;;;2.57;;
9467;SDS011;4772;52.382;9.752;2023-04-25T09:02:11;10.30;;;2.80;;
9467;SDS011;4772;52.382;9.752;2023-04-25T09:04:43;7.87;;;2.77;;
9467;SDS011;4772;52.382;9.752;2023-04-25T09:07:09;10.17;;;2.73;;
9467;SDS011;4772;52.382;9.752;2023-04-25T09:09:35;7.00;;;2.50;;
9467;SDS011;4772;52.382;9.752;2023-04-25T09:12:01;6.83;;;2.30;;
9467;SDS011;4772;52.382;9.752;2023-04-25T09:14:27;5.87;;;2.07;;
9467;SDS011;4772;52.382;9.752;2023-04-25T09:21:55;7.07;;;2.10;;
9467;SDS011;4772;52.382;9.752;2023-04-25T09:24:43;5.63;;;2.20;;
9467;SDS011;4772;52.382;9.752;2023-04-25T09:27:11;4.30;;;1.90;;
9467;SDS011;4772;52.382;9.752;2023-04-25T09:29:38;4.60;;;1.83;;
9467;SDS011;4772;52.382;9.752;2023-04-25T09:32:10;8.23;;;2.33;;
9467;SDS011;4772;52.382;9.752;2023-04-25T09:34:40;5.03;;;1.67;;
9467;SDS011;4772;52.382;9.752;2023-04-25T09:37:07;7.20;;;2.23;;
9467;SDS011;4772;52.382;9.752;2023-04-25T09:39:33;5.68;;;2.10;;
9467;SDS011;4772;52.382;9.752;2023-04-25T09:41:59;5.90;;;2.35;;
9467;SDS011;4772;52.382;9.752;2023-04-25T09:44:25;9.73;;;2.70;;
9467;SDS011;4772;52.382;9.752;2023-04-25T09:46:52;6.60;;;2.40;;
9467;SDS011;4772;52.382;9.752;2023-04-25T09:49:19;8.65;;;2.13;;
9467;SDS011;4772;52.382;9.752;2023-04-25T09:51:58;7.47;;;2.30;;
9467;SDS011;4772;52.382;9.752;2023-04-25T09:54:25;6.53;;;2.30;;
9467;SDS011;4772;52.382;9.752;2023-04-25T09:56:52;4.63;;;1.80;;
9467;SDS011;4772;52.382;9.752;2023-04-25T09:59:21;4.40;;;1.75;;
9467;SDS011;4772;52.382;9.752;2023-04-25T10:01:48;6.10;;;1.88;;
9467;SDS011;4772;52.382;9.752;2023-04-25T10:04:16;6.57;;;2.30;;
9467;SDS011;4772;52.382;9.752;2023-04-25T10:06:43;4.03;;;1.90;;
9467;SDS011;4772;52.382;9.752;2023-04-25T10:09:09;7.53;;;2.20;;
9467;SDS011;4772;52.382;9.752;2023-04-25T10:11:36;5.23;;;2.07;;
9467;SDS011;4772;52.382;9.752;2023-04-25T10:14:03;4.93;;;1.90;;
9467;SDS011;4772;52.382;9.752;2023-04-25T10:16:29;8.57;;;2.30;;
9467;SDS011;4772;52.382;9.752;2023-04-25T10:18:55;4.17;;;1.90;;
9467;SDS011;4772;52.382;9.752;2023-04-25T10:21:22;7.47;;;2.37;;
9467;SDS011;4772;52.382;9.752;2023-04-25T10:23:48;6.90;;;2.27;;
9467;SDS011;4772;52.382;9.752;2023-04-25T10:26:15;7.80;;;2.67;;
9467;SDS011;4772;52.382;9.752;2023-04-25T10:28:57;5.20;;;1.97;;
9467;SDS011;4772;52.382;9.752;2023-04-25T10:31:23;5.43;;;2.30;;
9467;SDS011;4772;52.382;9.752;2023-04-25T10:33:50;9.30;;;2.20;;
9467;SDS011;4772;52.382;9.752;2023-04-25T10:36:23;3.70;;;1.80;;
9467;SDS011;4772;52.382;9.752;2023-04-25T10:38:49;4.73;;;2.10;;
9467;SDS011;4772;52.382;9.752;2023-04-25T10:41:17;6.23;;;2.13;;
9467;SDS011;4772;52.382;9.752;2023-04-25T10:43:44;6.13;;;2.30;;
9467;SDS011;4772;52.382;9.752;2023-04-25T10:48:43;5.67;;;2.10;;
9467;SDS011;4772;52.382;9.752;2023-04-25T10:51:16;7.07;;;2.30;;
9467;SDS011;4772;52.382;9.752;2023-04-25T10:53:43;9.40;;;2.57;;
9467;SDS011;4772;52.382;9.752;2023-04-25T10:56:19;4.97;;;2.07;;
9467;SDS011;4772;52.382;9.752;2023-04-25T10:58:46;5.23;;;2.00;;
9467;SDS011;4772;52.382;9.752;2023-04-25T11:01:15;6.83;;;2.17;;
9467;SDS011;4772;52.382;9.752;2023-04-25T11:03:45;4.07;;;1.83;;
9467;SDS011;4772;52.382;9.752;2023-04-25T11:06:22;4.13;;;1.73;;
9467;SDS011;4772;52.382;9.752;2023-04-25T11:08:50;3.97;;;1.70;;
9467;SDS011;4772;52.382;9.752;2023-04-25T11:11:17;5.73;;;1.80;;
9467;SDS011;4772;52.382;9.752;2023-04-25T11:13:43;4.83;;;1.93;;
9467;SDS011;4772;52.382;9.752;2023-04-25T11:16:10;4.43;;;1.73;;
9467;SDS011;4772;52.382;9.752;2023-04-25T11:18:36;4.47;;;2.07;;
9467;SDS011;4772;52.382;9.752;2023-04-25T11:21:03;6.07;;;1.70;;
9467;SDS011;4772;52.382;9.752;2023-04-25T11:23:29;5.00;;;1.70;;
9467;SDS011;4772;52.382;9.752;2023-04-25T11:25:56;7.68;;;2.03;;
9467;SDS011;4772;52.382;9.752;2023-04-25T11:28:22;4.80;;;1.90;;
9467;SDS011;4772;52.382;9.752;2023-04-25T11:30:48;3.67;;;1.70;;
9467;SDS011;4772;52.382;9.752;2023-04-25T11:33:18;5.20;;;1.93;;
9467;SDS011;4772;52.382;9.752;2023-04-25T11:35:44;4.70;;;2.10;;
9467;SDS011;4772;52.382;9.752;2023-04-25T11:38:10;5.53;;;1.93;;
9467;SDS011;4772;52.382;9.752;2023-04-25T11:40:36;10.73;;;2.20;;
9467;SDS011;4772;52.382;9.752;2023-04-25T11:43:02;8.23;;;2.33;;
9467;SDS011;4772;52.382;9.752;2023-04-25T11:45:28;8.07;;;2.13;;
9467;SDS011;4772;52.382;9.752;2023-04-25T11:47:56;7.30;;;2.20;;
9467;SDS011;4772;52.382;9.752;2023-04-25T11:50:22;5.20;;;1.87;;
9467;SDS011;4772;52.382;9.752;2023-04-25T11:52:48;6.27;;;2.20;;
9467;SDS011;4772;52.382;9.752;2023-04-25T11:55:16;5.97;;;2.50;;
9467;SDS011;4772;52.382;9.752;2023-04-25T11:57:42;5.20;;;2.10;;
9467;SDS011;4772;52.382;9.752;2023-04-25T12:00:09;6.67;;;2.30;;
9467;SDS011;4772;52.382;9.752;2023-04-25T12:02:51;10.67;;;2.37;;
9467;SDS011;4772;52.382;9.752;2023-04-25T12:05:17;5.63;;;1.90;;
9467;SDS011;4772;52.382;9.752;2023-04-25T12:07:44;10.83;;;2.43;;
9467;SDS011;4772;52.382;9.752;2023-04-25T12:10:12;4.63;;;1.90;;
9467;SDS011;4772;52.382;9.752;2023-04-25T12:12:38;6.40;;;1.90;;
9467;SDS011;4772;52.382;9.752;2023-04-25T12:15:10;3.23;;;1.40;;
9467;SDS011;4772;52.382;9.752;2023-04-25T12:17:37;5.70;;;1.73;;
9467;SDS011;4772;52.382;9.752;2023-04-25T12:20:10;5.00;;;1.70;;
9467;SDS011;4772;52.382;9.752;2023-04-25T12:22:36;3.83;;;1.70;;
9467;SDS011;4772;52.382;9.752;2023-04-25T12:25:03;4.13;;;1.47;;
9467;SDS011;4772;52.382;9.752;2023-04-25T12:27:30;3.63;;;1.50;;
9467;SDS011;4772;52.382;9.752;2023-04-25T12:29:56;4.07;;;1.42;;
9467;SDS011;4772;52.382;9.752;2023-04-25T12:32:22;3.42;;;1.40;;
9467;SDS011;4772;52.382;9.752;2023-04-25T12:34:48;2.97;;;1.43;;
9467;SDS011;4772;52.382;9.752;2023-04-25T12:37:14;4.50;;;1.60;;
9467;SDS011;4772;52.382;9.752;2023-04-25T12:39:41;5.90;;;1.83;;
9467;SDS011;4772;52.382;9.752;2023-04-25T12:42:07;6.77;;;1.70;;
9467;SDS011;4772;52.382;9.752;2023-04-25T12:44:36;6.00;;;1.40;;
9467;SDS011;4772;52.382;9.752;2023-04-25T12:47:02;4.60;;;1.43;;
9467;SDS011;4772;52.382;9.752;2023-04-25T12:49:28;2.33;;;1.20;;
9467;SDS011;4772;52.382;9.752;2023-04-25T12:51:54;3.23;;;1.20;;
9467;SDS011;4772;52.382;9.752;2023-04-25T12:54:20;2.40;;;1.20;;
9467;SDS011;4772;52.382;9.752;2023-04-25T12:56:46;3.47;;;1.30;;
9467;SDS011;4772;52.382;9.752;2023-04-25T12:59:12;3.00;;;1.33;;
9467;SDS011;4772;52.382;9.752;2023-04-25T13:01:39;4.00;;;1.37;;
9467;SDS011;4772;52.382;9.752;2023-04-25T13:04:04;2.83;;;1.17;;
9467;SDS011;4772;52.382;9.752;2023-04-25T13:06:30;4.10;;;1.70;;
9467;SDS011;4772;52.382;9.752;2023-04-25T13:08:56;2.70;;;1.10;;
9467;SDS011;4772;52.382;9.752;2023-04-25T13:11:22;3.93;;;1.60;;
9467;SDS011;4772;52.382;9.752;2023-04-25T13:13:48;3.67;;;1.10;;
9467;SDS011;4772;52.382;9.752;2023-04-25T13:16:14;5.33;;;1.50;;
9467;SDS011;4772;52.382;9.752;2023-04-25T13:18:40;2.43;;;1.47;;
9467;SDS011;4772;52.382;9.752;2023-04-25T13:21:13;5.57;;;1.63;;
9467;SDS011;4772;52.382;9.752;2023-04-25T13:23:39;3.97;;;1.40;;
9467;SDS011;4772;52.382;9.752;2023-04-25T13:26:07;3.97;;;1.60;;
9467;SDS011;4772;52.382;9.752;2023-04-25T13:28:33;6.67;;;1.57;;
9467;SDS011;4772;52.382;9.752;2023-04-25T13:30:59;5.90;;;1.83;;
9467;SDS011;4772;52.382;9.752;2023-04-25T13:33:25;4.63;;;1.50;;
9467;SDS011;4772;52.382;9.752;2023-04-25T13:35:51;5.43;;;2.07;;
9467;SDS011;4772;52.382;9.752;2023-04-25T13:38:22;3.53;;;1.70;;
9467;SDS011;4772;52.382;9.752;2023-04-25T13:40:49;9.17;;;1.80;;
9467;SDS011;4772;52.382;9.752;2023-04-25T13:43:17;4.07;;;1.80;;
9467;SDS011;4772;52.382;9.752;2023-04-25T13:45:43;3.27;;;1.43;;
9467;SDS011;4772;52.382;9.752;2023-04-25T13:48:09;6.43;;;1.80;;
9467;SDS011;4772;52.382;9.752;2023-04-25T13:50:35;3.43;;;1.70;;
9467;SDS011;4772;52.382;9.752;2023-04-25T13:53:01;4.37;;;1.70;;
9467;SDS011;4772;52.382;9.752;2023-04-25T13:55:28;3.50;;;1.83;;
9467;SDS011;4772;52.382;9.752;2023-04-25T13:57:55;9.27;;;2.10;;
9467;SDS011;4772;52.382;9.752;2023-04-25T14:00:21;5.47;;;2.30;;
9467;SDS011;4772;52.382;9.752;2023-04-25T14:02:47;3.57;;;1.30;;
9467;SDS011;4772;52.382;9.752;2023-04-25T14:05:12;5.57;;;1.40;;
9467;SDS011;4772;52.382;9.752;2023-04-25T14:07:39;4.03;;;1.90;;
9467;SDS011;4772;52.382;9.752;2023-04-25T14:10:05;4.23;;;1.57;;
9467;SDS011;4772;52.382;9.752;2023-04-25T14:12:32;6.10;;;1.90;;
9467;SDS011;4772;52.382;9.752;2023-04-25T14:14:58;3.77;;;1.50;;
9467;SDS011;4772;52.382;9.752;2023-04-25T14:17:24;2.60;;;1.60;;
9467;SDS011;4772;52.382;9.752;2023-04-25T14:19:50;4.87;;;1.87;;
9467;SDS011;4772;52.382;9.752;2023-04-25T14:22:16;5.13;;;1.70;;
9467;SDS011;4772;52.382;9.752;2023-04-25T14:24:42;7.27;;;1.70;;
9467;SDS011;4772;52.382;9.752;2023-04-25T14:27:08;3.83;;;1.60;;
9467;SDS011;4772;52.382;9.752;2023-04-25T14:29:34;4.57;;;1.70;;
9467;SDS011;4772;52.382;9.752;2023-04-25T14:32:00;2.70;;;1.50;;
9467;SDS011;4772;52.382;9.752;2023-04-25T14:34:27;1.97;;;1.70;;
9467;SDS011;4772;52.382;9.752;2023-04-25T14:36:53;4.83;;;1.77;;
9467;SDS011;4772;52.382;9.752;2023-04-25T14:39:19;5.23;;;2.23;;
9467;SDS011;4772;52.382;9.752;2023-04-25T14:41:45;3.40;;;1.93;;
9467;SDS011;4772;52.382;9.752;2023-04-25T14:44:11;4.60;;;1.77;;
9467;SDS011;4772;52.382;9.752;2023-04-25T14:46:37;4.50;;;1.47;;
9467;SDS011;4772;52.382;9.752;2023-04-25T14:49:03;4.13;;;1.53;;
9467;SDS011;4772;52.382;9.752;2023-04-25T14:51:29;3.67;;;1.77;;
9467;SDS011;4772;52.382;9.752;2023-04-25T14:53:55;3.63;;;1.50;;
9467;SDS011;4772;52.382;9.752;2023-04-25T14:56:21;4.53;;;1.73;;
9467;SDS011;4772;52.382;9.752;2023-04-25T14:58:47;3.47;;;1.80;;
9467;SDS011;4772;52.382;9.752;2023-04-25T15:01:13;4.40;;;2.30;;
9467;SDS011;4772;52.382;9.752;2023-04-25T15:03:40;4.00;;;1.80;;
9467;SDS011;4772;52.382;9.752;2023-04-25T15:06:06;7.83;;;2.30;;
9467;SDS011;4772;52.382;9.752;2023-04-25T15:08:32;3.47;;;1.60;;
9467;SDS011;4772;52.382;9.752;2023-04-25T15:10:58;6.80;;;1.90;;